Time;durP1;ratioP1;P1;durP2;ratioP2;P2;SDS_P1;SDS_P2;PMS_P1;PMS_P2;Temp;Humidity;BMP_temperature;BMP_pressure;BME280_temperature;BME280_humidity;BME280_pressure;Samples;Min_cycle;Max_cycle;Signal;HPM_P1;HPM_P2
2021/09/06 00:02:12;;;;;;;12.18;7.90;;;20.30;97.50;;;;;;5090195;28;20461;-63
2021/09/06 00:04:37;;;;;;;11.23;7.75;;;20.30;97.80;;;;;;5089577;28;20066;-65
2021/09/06 00:07:03;;;;;;;10.05;7.97;;;20.30;97.50;;;;;;5090447;28;20552;-63
2021/09/06 00:09:31;;;;;;;10.77;8.68;;;20.20;97.60;;;;;;5090204;28;20374;-61
2021/09/06 00:11:57;;;;;;;10.90;8.27;;;20.20;97.50;;;;;;5090892;28;20388;-62
2021/09/06 00:14:22;;;;;;;10.75;8.70;;;20.10;97.70;;;;;;5091168;28;20016;-62
2021/09/06 00:16:48;;;;;;;10.32;8.57;;;20.10;97.50;;;;;;5089325;28;20032;-62
2021/09/06 00:19:14;;;;;;;16.15;8.35;;;20.10;97.50;;;;;;5089529;28;20118;-62
2021/09/06 00:21:39;;;;;;;13.07;8.95;;;20.10;97.50;;;;;;5089337;28;20414;-62
2021/09/06 00:24:05;;;;;;;15.70;11.32;;;20.00;97.40;;;;;;5090964;28;20068;-62
2021/09/06 00:26:31;;;;;;;16.63;11.52;;;20.00;97.60;;;;;;5090130;28;20358;-62
2021/09/06 00:28:58;;;;;;;12.82;10.57;;;20.00;97.50;;;;;;5090723;28;20179;-61
2021/09/06 00:31:24;;;;;;;13.68;10.27;;;19.90;97.40;;;;;;5089826;28;20112;-61
2021/09/06 00:33:49;;;;;;;11.88;9.07;;;19.90;97.50;;;;;;5089253;28;20162;-62
2021/09/06 00:36:15;;;;;;;16.40;12.07;;;19.90;97.70;;;;;;5089715;28;20531;-62
2021/09/06 00:38:40;;;;;;;11.68;8.82;;;19.90;97.60;;;;;;5090227;28;20119;-62
2021/09/06 00:41:06;;;;;;;10.23;8.20;;;19.90;97.30;;;;;;5089931;28;20439;-62
2021/09/06 00:43:32;;;;;;;10.88;8.52;;;19.80;97.40;;;;;;5091088;28;20127;-61
2021/09/06 00:45:57;;;;;;;8.75;7.57;;;19.80;97.60;;;;;;5090466;28;20032;-63
2021/09/06 00:48:25;;;;;;;10.95;8.63;;;19.90;97.60;;;;;;5089622;28;20027;-62
2021/09/06 00:50:52;;;;;;;14.27;9.43;;;19.90;97.40;;;;;;5090297;28;20119;-62
2021/09/06 00:53:17;;;;;;;9.43;7.80;;;19.80;97.30;;;;;;5091087;28;20028;-62
2021/09/06 00:55:43;;;;;;;12.80;9.18;;;19.80;97.30;;;;;;5088912;28;20496;-62
2021/09/06 00:58:09;;;;;;;10.70;8.23;;;19.80;97.50;;;;;;5089290;28;20024;-62
2021/09/06 01:00:35;;;;;;;10.75;8.23;;;19.70;97.40;;;;;;5089126;28;20451;-63
2021/09/06 01:03:01;;;;;;;9.43;8.43;;;19.70;97.70;;;;;;5093977;28;20064;-62
2021/09/06 01:05:27;;;;;;;12.90;8.50;;;19.70;97.70;;;;;;5093493;28;20030;-62
2021/09/06 01:07:52;;;;;;;10.65;8.00;;;19.60;97.60;;;;;;5092740;28;20020;-63
2021/09/06 01:10:18;;;;;;;11.95;8.55;;;19.70;97.70;;;;;;5078827;28;20029;-62
2021/09/06 01:12:44;;;;;;;13.57;8.75;;;19.70;97.70;;;;;;5075182;28;20024;-63
2021/09/06 01:15:11;;;;;;;10.43;8.68;;;19.60;97.70;;;;;;5074899;28;20024;-62
2021/09/06 01:17:37;;;;;;;12.35;8.70;;;19.50;97.70;;;;;;5074081;28;20024;-62
2021/09/06 01:20:05;;;;;;;10.20;8.45;;;19.60;97.60;;;;;;5073664;28;20034;-62
2021/09/06 01:22:31;;;;;;;10.23;8.02;;;19.50;97.50;;;;;;5073044;28;20051;-62
2021/09/06 01:24:56;;;;;;;11.15;8.48;;;19.50;97.70;;;;;;5072144;28;20067;-62
2021/09/06 01:27:22;;;;;;;10.02;8.75;;;19.50;97.80;;;;;;5072499;28;20119;-62
2021/09/06 01:29:47;;;;;;;9.48;7.78;;;19.60;97.90;;;;;;5073618;28;20107;-62
2021/09/06 01:32:13;;;;;;;12.95;9.75;;;19.60;97.70;;;;;;5074067;28;20028;-63
2021/09/06 01:34:39;;;;;;;12.10;10.07;;;19.60;97.80;;;;;;5072574;28;20029;-63
2021/09/06 01:37:04;;;;;;;13.25;8.93;;;19.50;97.90;;;;;;5073220;28;20443;-62
2021/09/06 01:39:30;;;;;;;11.07;8.82;;;19.50;97.70;;;;;;5074073;28;20086;-62
2021/09/06 01:41:56;;;;;;;11.32;8.90;;;19.50;97.80;;;;;;5073058;28;20044;-62
2021/09/06 01:44:22;;;;;;;11.13;8.43;;;19.50;97.70;;;;;;5073922;28;20035;-62
2021/09/06 01:46:47;;;;;;;9.48;7.97;;;19.40;97.90;;;;;;5071810;28;20025;-63
2021/09/06 01:49:13;;;;;;;10.55;9.27;;;19.40;97.90;;;;;;5073596;28;20393;-62
2021/09/06 01:51:39;;;;;;;10.00;8.20;;;19.30;98.00;;;;;;5073640;28;20052;-61
2021/09/06 01:54:05;;;;;;;11.43;9.48;;;19.50;98.00;;;;;;5073134;28;20067;-61
2021/09/06 01:56:31;;;;;;;12.90;9.52;;;19.40;97.90;;;;;;5072235;28;20130;-61
2021/09/06 01:58:57;;;;;;;13.05;9.90;;;19.40;97.90;;;;;;5071414;28;20024;-61
2021/09/06 02:01:23;;;;;;;13.82;9.88;;;19.30;98.10;;;;;;5073275;28;20089;-61
2021/09/06 02:03:49;;;;;;;10.38;9.05;;;19.40;97.90;;;;;;5072442;28;20033;-60
2021/09/06 02:06:14;;;;;;;12.50;9.82;;;19.30;98.10;;;;;;5073272;28;20070;-61
2021/09/06 02:08:40;;;;;;;11.60;9.10;;;19.30;98.10;;;;;;5073070;28;20031;-61
2021/09/06 02:11:06;;;;;;;13.77;9.77;;;19.30;98.10;;;;;;5071524;28;20139;-61
2021/09/06 02:13:32;;;;;;;12.35;10.13;;;19.30;98.00;;;;;;5070332;28;20374;-61
2021/09/06 02:15:57;;;;;;;13.63;10.80;;;19.20;98.20;;;;;;5071177;28;20024;-61
2021/09/06 02:18:23;;;;;;;13.35;10.45;;;19.20;98.20;;;;;;5073086;28;20471;-61
2021/09/06 02:20:49;;;;;;;12.68;10.15;;;19.30;98.20;;;;;;5072493;28;20025;-61
2021/09/06 02:23:14;;;;;;;13.45;10.32;;;19.30;98.20;;;;;;5072938;28;20429;-61
2021/09/06 02:25:40;;;;;;;16.33;10.23;;;19.30;98.20;;;;;;5072718;28;20049;-61
2021/09/06 02:28:06;;;;;;;12.85;10.15;;;19.30;98.20;;;;;;5072277;28;20028;-62
2021/09/06 02:30:31;;;;;;;12.85;10.30;;;19.30;98.20;;;;;;5072644;28;20029;-61
2021/09/06 02:32:57;;;;;;;12.07;9.57;;;19.20;98.20;;;;;;5070348;28;20485;-61
2021/09/06 02:35:23;;;;;;;12.93;9.73;;;19.20;98.20;;;;;;5072751;28;20025;-61
2021/09/06 02:37:48;;;;;;;15.68;10.77;;;19.20;98.10;;;;;;5072556;28;20028;-62
2021/09/06 02:40:15;;;;;;;15.15;10.90;;;19.30;97.80;;;;;;5072915;28;20392;-62
2021/09/06 02:42:41;;;;;;;14.50;10.85;;;19.30;97.90;;;;;;5071573;28;20078;-62
2021/09/06 02:45:08;;;;;;;13.82;10.48;;;19.20;98.10;;;;;;5070729;28;20059;-63
2021/09/06 02:47:33;;;;;;;16.42;11.10;;;19.20;98.20;;;;;;5072459;28;20354;-62
2021/09/06 02:50:02;;;;;;;15.73;11.02;;;19.10;98.30;;;;;;5071919;28;20127;-62
2021/09/06 02:52:27;;;;;;;13.95;10.98;;;19.20;98.30;;;;;;5070825;28;20454;-62
2021/09/06 02:54:53;;;;;;;15.00;9.98;;;19.10;98.20;;;;;;5071480;28;20027;-63
2021/09/06 02:57:19;;;;;;;14.57;11.10;;;19.10;98.20;;;;;;5072056;28;20021;-63
2021/09/06 02:59:44;;;;;;;13.85;11.35;;;19.10;98.20;;;;;;5071326;28;20032;-62
2021/09/06 03:02:10;;;;;;;15.10;11.25;;;19.00;98.50;;;;;;5071538;28;20107;-62
2021/09/06 03:04:35;;;;;;;14.15;10.88;;;19.00;98.50;;;;;;5072327;28;20082;-62
2021/09/06 03:07:01;;;;;;;14.65;11.52;;;19.00;98.70;;;;;;5071309;28;20082;-62
2021/09/06 03:09:27;;;;;;;15.43;11.82;;;18.90;98.80;;;;;;5070822;28;20035;-62
2021/09/06 03:11:53;;;;;;;13.43;10.73;;;19.00;98.60;;;;;;5071443;28;20029;-62
2021/09/06 03:14:19;;;;;;;13.48;11.23;;;18.90;98.80;;;;;;5071823;28;20021;-62
2021/09/06 03:16:44;;;;;;;13.30;11.27;;;18.90;99.10;;;;;;5072182;28;20035;-62
2021/09/06 03:19:10;;;;;;;15.20;11.50;;;18.80;99.10;;;;;;5071038;28;20024;-62
2021/09/06 03:21:36;;;;;;;15.98;11.48;;;18.80;99.30;;;;;;5072049;28;20454;-61
2021/09/06 03:24:02;;;;;;;15.38;11.65;;;18.80;99.30;;;;;;5070843;28;20083;-60
2021/09/06 03:26:28;;;;;;;14.50;11.80;;;18.80;99.40;;;;;;5071592;28;20525;-61
2021/09/06 03:28:53;;;;;;;14.10;11.65;;;18.70;99.60;;;;;;5070913;28;20032;-61
2021/09/06 03:31:19;;;;;;;14.23;11.45;;;18.70;99.70;;;;;;5071838;28;20382;-62
2021/09/06 03:33:44;;;;;;;17.30;11.50;;;18.70;99.70;;;;;;5071417;28;20423;-61
2021/09/06 03:36:10;;;;;;;15.68;12.63;;;18.60;99.70;;;;;;5070950;28;20037;-61
2021/09/06 03:38:36;;;;;;;15.38;12.25;;;18.60;99.80;;;;;;5071990;28;20025;-62
2021/09/06 03:41:02;;;;;;;17.35;12.60;;;18.50;99.90;;;;;;5070680;28;20029;-63
2021/09/06 03:43:27;;;;;;;17.70;13.25;;;18.40;99.90;;;;;;5070394;28;20124;-62
2021/09/06 03:45:53;;;;;;;15.55;12.93;;;18.40;99.90;;;;;;5070796;28;20056;-61
2021/09/06 03:48:19;;;;;;;17.90;13.30;;;18.30;99.90;;;;;;5069823;28;20430;-62
2021/09/06 03:50:44;;;;;;;14.10;11.15;;;18.30;99.90;;;;;;5071485;28;20511;-62
2021/09/06 03:53:11;;;;;;;14.73;12.10;;;18.30;99.90;;;;;;5071118;28;20067;-62
2021/09/06 03:55:36;;;;;;;14.93;12.43;;;18.30;99.90;;;;;;5070071;28;20149;-62
2021/09/06 03:58:02;;;;;;;15.15;12.40;;;18.30;99.90;;;;;;5070671;28;20555;-61
2021/09/06 04:00:27;;;;;;;15.25;11.30;;;18.30;99.90;;;;;;5070746;28;20441;-61
2021/09/06 04:02:53;;;;;;;18.42;12.77;;;18.30;99.90;;;;;;5068722;28;20038;-62
2021/09/06 04:05:19;;;;;;;15.77;12.30;;;18.30;99.90;;;;;;5069847;28;20029;-62
2021/09/06 04:07:44;;;;;;;16.85;12.45;;;18.30;99.90;;;;;;5069907;28;20024;-62
2021/09/06 04:10:11;;;;;;;16.80;12.55;;;18.20;99.90;;;;;;5070625;28;20388;-62
2021/09/06 04:12:36;;;;;;;17.52;12.43;;;18.20;99.90;;;;;;5069578;28;20028;-62
2021/09/06 04:15:04;;;;;;;16.33;13.02;;;18.30;99.90;;;;;;5069007;28;20116;-62
2021/09/06 04:17:30;;;;;;;17.13;13.15;;;18.30;99.90;;;;;;5069706;28;20115;-61
2021/09/06 04:19:56;;;;;;;25.83;14.50;;;18.30;99.90;;;;;;5070360;28;20119;-62
2021/09/06 04:22:21;;;;;;;16.30;12.57;;;18.30;99.90;;;;;;5069461;28;20051;-61
2021/09/06 04:24:47;;;;;;;18.83;13.90;;;18.30;99.90;;;;;;5067916;28;20045;-62
2021/09/06 04:27:12;;;;;;;14.95;12.63;;;18.30;99.90;;;;;;5067681;28;20545;-61
2021/09/06 04:29:38;;;;;;;16.25;12.93;;;18.30;99.90;;;;;;5068436;28;20500;-61
2021/09/06 04:32:04;;;;;;;16.65;12.82;;;18.30;99.90;;;;;;5067595;28;20027;-63
2021/09/06 04:34:29;;;;;;;18.92;12.85;;;18.20;99.90;;;;;;5068322;28;20045;-61
2021/09/06 04:36:55;;;;;;;20.60;13.40;;;18.10;99.90;;;;;;5067164;28;20066;-61
2021/09/06 04:39:21;;;;;;;17.73;13.43;;;18.10;99.90;;;;;;5068411;28;20055;-61
2021/09/06 04:41:46;;;;;;;18.73;12.95;;;18.10;99.90;;;;;;5068333;28;20396;-62
2021/09/06 04:44:12;;;;;;;17.40;12.95;;;18.10;99.90;;;;;;5067604;28;20036;-62
2021/09/06 04:46:38;;;;;;;15.77;12.27;;;18.10;99.90;;;;;;5068223;28;20060;-61
2021/09/06 04:49:04;;;;;;;20.42;13.38;;;18.10;99.90;;;;;;5067726;28;20122;-62
2021/09/06 04:51:30;;;;;;;17.90;13.80;;;18.10;99.90;;;;;;5068143;28;20039;-62
2021/09/06 04:53:56;;;;;;;18.92;12.73;;;18.10;99.90;;;;;;5067811;28;20032;-62
2021/09/06 04:56:23;;;;;;;16.95;13.23;;;18.00;99.90;;;;;;5069127;28;20044;-62
2021/09/06 04:58:50;;;;;;;17.98;11.98;;;18.10;99.90;;;;;;5070210;28;20535;-63
2021/09/06 05:01:16;;;;;;;16.80;13.02;;;18.10;99.90;;;;;;5068416;28;20374;-63
2021/09/06 05:03:42;;;;;;;19.50;13.35;;;18.10;99.90;;;;;;5070478;28;20047;-62
2021/09/06 05:06:07;;;;;;;16.98;12.70;;;18.20;99.90;;;;;;5069971;28;20021;-62
2021/09/06 05:08:33;;;;;;;15.35;12.27;;;18.30;99.90;;;;;;5070757;28;20150;-62
2021/09/06 05:10:59;;;;;;;16.33;13.18;;;18.20;99.90;;;;;;5069861;28;20057;-62
2021/09/06 05:13:25;;;;;;;17.25;12.70;;;18.20;99.90;;;;;;5070593;28;20021;-62
2021/09/06 05:15:50;;;;;;;20.95;13.68;;;18.30;99.90;;;;;;5069108;28;20032;-63
2021/09/06 05:18:16;;;;;;;16.80;12.65;;;18.20;99.90;;;;;;5068518;28;20462;-63
2021/09/06 05:20:42;;;;;;;19.83;14.07;;;18.30;99.90;;;;;;5070620;28;20479;-63
2021/09/06 05:23:08;;;;;;;18.15;14.32;;;18.30;99.90;;;;;;5068485;28;20027;-61
2021/09/06 05:25:34;;;;;;;28.42;15.38;;;18.10;99.90;;;;;;5069964;28;20098;-61
2021/09/06 05:28:00;;;;;;;23.30;13.07;;;18.10;99.90;;;;;;5068424;28;20059;-61
2021/09/06 05:30:26;;;;;;;23.33;14.10;;;18.00;99.90;;;;;;5069439;28;20377;-62
2021/09/06 05:32:52;;;;;;;20.83;14.38;;;17.80;99.90;;;;;;5068508;28;20093;-62
2021/09/06 05:35:19;;;;;;;17.60;13.02;;;17.90;99.90;;;;;;5069590;28;20048;-61
2021/09/06 05:37:44;;;;;;;17.70;13.13;;;17.80;99.90;;;;;;5068971;28;20024;-62
2021/09/06 05:40:11;;;;;;;18.40;13.95;;;17.90;99.90;;;;;;5068093;28;20041;-62
2021/09/06 05:42:36;;;;;;;17.83;14.10;;;17.90;99.90;;;;;;5068584;28;20064;-62
2021/09/06 05:45:03;;;;;;;20.17;13.93;;;18.00;99.90;;;;;;5069312;28;20068;-61
2021/09/06 05:47:28;;;;;;;19.17;13.57;;;18.10;99.90;;;;;;5069698;28;20021;-62
2021/09/06 05:49:54;;;;;;;18.25;14.30;;;18.10;99.90;;;;;;5071768;28;20028;-62
2021/09/06 05:52:20;;;;;;;22.88;14.40;;;18.10;99.90;;;;;;5071203;28;20029;-62
2021/09/06 05:54:46;;;;;;;21.13;14.88;;;18.20;99.90;;;;;;5073747;28;20107;-62
2021/09/06 05:57:12;;;;;;;22.63;15.20;;;18.10;99.90;;;;;;5071702;28;20389;-63
2021/09/06 05:59:37;;;;;;;22.23;15.13;;;18.10;99.90;;;;;;5073154;28;20033;-62
2021/09/06 06:02:03;;;;;;;18.98;14.05;;;18.20;99.90;;;;;;5071212;28;20029;-63
2021/09/06 06:04:29;;;;;;;18.67;14.00;;;18.20;99.90;;;;;;5073571;28;20035;-62
2021/09/06 06:06:55;;;;;;;19.38;14.73;;;18.30;99.90;;;;;;5073348;28;20025;-62
2021/09/06 06:09:21;;;;;;;21.42;15.07;;;18.40;99.90;;;;;;5072768;28;20025;-64
2021/09/06 06:11:47;;;;;;;18.25;14.57;;;18.40;99.90;;;;;;5071878;28;20024;-61
2021/09/06 06:14:13;;;;;;;22.90;14.48;;;18.40;99.90;;;;;;5071600;28;20045;-68
2021/09/06 06:16:38;;;;;;;19.55;13.90;;;18.60;99.90;;;;;;5073895;28;20091;-67
2021/09/06 06:19:05;;;;;;;22.90;13.95;;;18.90;99.90;;;;;;5072611;28;20038;-68
2021/09/06 06:21:32;;;;;;;20.08;12.25;;;19.00;99.90;;;;;;5072098;28;20111;-52
2021/09/06 06:23:58;;;;;;;17.27;10.57;;;19.60;99.90;;;;;;5092755;28;20040;-52
2021/09/06 06:26:23;;;;;;;16.42;11.82;;;20.30;99.90;;;;;;5092297;28;20496;-52
2021/09/06 06:28:49;;;;;;;18.08;12.35;;;20.70;99.90;;;;;;5090751;28;20038;-52
2021/09/06 06:31:15;;;;;;;18.58;13.02;;;21.00;99.90;;;;;;5072395;28;20024;-52
2021/09/06 06:33:41;;;;;;;22.98;12.80;;;21.30;99.90;;;;;;5080409;28;20068;-52
2021/09/06 06:36:06;;;;;;;18.02;12.10;;;21.40;99.20;;;;;;5072168;28;20027;-51
2021/09/06 06:38:34;;;;;;;17.63;11.90;;;21.30;99.50;;;;;;5072786;28;20146;-51
2021/09/06 06:41:01;;;;;;;16.83;12.45;;;21.70;99.50;;;;;;5070746;28;20151;-51
2021/09/06 06:43:27;;;;;;;17.35;11.98;;;22.00;98.90;;;;;;5072204;28;20069;-50
2021/09/06 06:45:53;;;;;;;19.02;12.52;;;22.20;98.40;;;;;;5075410;28;20038;-51
2021/09/06 06:48:19;;;;;;;21.83;11.43;;;22.30;98.00;;;;;;5088917;28;20023;-51
2021/09/06 06:50:44;;;;;;;17.38;12.02;;;22.50;97.70;;;;;;5091758;28;20503;-52
2021/09/06 06:53:10;;;;;;;19.13;12.73;;;22.50;97.30;;;;;;5090443;28;20499;-52
2021/09/06 06:55:36;;;;;;;16.92;12.73;;;22.60;96.90;;;;;;5090771;28;20429;-51
2021/09/06 06:58:02;;;;;;;15.68;12.73;;;22.60;96.70;;;;;;5090452;28;20032;-51
2021/09/06 07:00:28;;;;;;;16.15;11.77;;;22.70;96.50;;;;;;5091454;28;20043;-52
2021/09/06 07:02:54;;;;;;;16.05;12.77;;;22.80;96.20;;;;;;5089949;28;20032;-54
2021/09/06 07:05:20;;;;;;;15.25;12.55;;;22.80;95.80;;;;;;5089406;28;20054;-51
2021/09/06 07:07:46;;;;;;;14.95;12.43;;;22.70;96.20;;;;;;5085325;28;20074;-50
2021/09/06 07:10:12;;;;;;;16.88;12.98;;;22.80;96.00;;;;;;5070849;28;20025;-51
2021/09/06 07:12:39;;;;;;;16.60;13.05;;;22.90;95.90;;;;;;5071057;28;20031;-50
2021/09/06 07:15:06;;;;;;;15.68;12.98;;;23.00;95.80;;;;;;5071555;28;20094;-51
2021/09/06 07:17:32;;;;;;;18.05;13.25;;;23.10;95.60;;;;;;5070425;28;20028;-52
2021/09/06 07:19:58;;;;;;;15.30;12.55;;;23.10;94.70;;;;;;5070187;28;20060;-50
2021/09/06 07:22:23;;;;;;;15.25;11.50;;;23.00;95.00;;;;;;5075079;28;20072;-52
2021/09/06 07:24:49;;;;;;;16.25;11.75;;;23.00;94.90;;;;;;5089896;28;20051;-51
2021/09/06 07:27:15;;;;;;;19.58;13.60;;;23.20;95.00;;;;;;5085116;28;20062;-52
2021/09/06 07:29:41;;;;;;;20.08;13.60;;;23.40;94.90;;;;;;5091000;28;20028;-51
2021/09/06 07:32:07;;;;;;;17.25;12.45;;;23.50;94.80;;;;;;5090738;28;20111;-61
2021/09/06 07:34:35;;;;;;;17.52;12.45;;;23.60;94.70;;;;;;5089381;28;20039;-51
2021/09/06 07:37:08;;;;;;;16.45;12.40;;;23.70;94.20;;;;;;5089513;28;20527;-50
2021/09/06 07:39:35;;;;;;;13.77;11.68;;;23.80;93.60;;;;;;5089529;28;20127;-51
2021/09/06 07:42:02;;;;;;;15.25;12.23;;;23.70;93.50;;;;;;5090993;28;20024;-52
2021/09/06 07:44:31;;;;;;;13.43;11.63;;;23.70;93.50;;;;;;5089899;28;20055;-51
2021/09/06 07:46:57;;;;;;;16.63;10.95;;;23.90;93.80;;;;;;5090456;28;20394;-51
2021/09/06 07:49:23;;;;;;;15.73;12.88;;;24.00;93.40;;;;;;5089815;28;20185;-51
2021/09/06 07:51:52;;;;;;;14.80;11.20;;;24.10;93.50;;;;;;5088970;28;20342;-51
2021/09/06 07:54:26;;;;;;;19.67;11.88;;;24.20;93.30;;;;;;5088279;28;20035;-51
2021/09/06 07:56:53;;;;;;;12.07;10.57;;;24.20;93.20;;;;;;5078714;28;20032;-50
2021/09/06 07:59:20;;;;;;;17.42;11.63;;;24.30;92.90;;;;;;5073001;28;20043;-52
2021/09/06 08:01:46;;;;;;;13.25;11.00;;;24.40;93.00;;;;;;5090982;28;20479;-52
2021/09/06 08:04:13;;;;;;;13.95;11.80;;;24.40;91.90;;;;;;5088859;28;20086;-51
2021/09/06 08:06:39;;;;;;;13.88;10.75;;;24.40;91.40;;;;;;5088908;28;20024;-51
2021/09/06 08:09:05;;;;;;;13.27;10.32;;;24.40;91.30;;;;;;5090600;28;20066;-51
2021/09/06 08:11:32;;;;;;;13.38;10.32;;;24.60;92.00;;;;;;5089143;28;20065;-51
2021/09/06 08:13:58;;;;;;;14.30;10.63;;;24.60;92.00;;;;;;5090167;28;20222;-49
2021/09/06 08:16:24;;;;;;;11.75;10.55;;;24.60;91.20;;;;;;5090004;28;20020;-51
2021/09/06 08:18:50;;;;;;;12.75;10.57;;;24.60;91.00;;;;;;5089161;28;20032;-51
2021/09/06 08:21:16;;;;;;;13.73;10.82;;;24.50;91.10;;;;;;5088415;28;20024;-50
2021/09/06 08:23:42;;;;;;;12.35;10.73;;;24.40;91.30;;;;;;5089961;28;20040;-51
2021/09/06 08:26:07;;;;;;;18.48;11.07;;;24.60;91.50;;;;;;5083281;28;20029;-57
2021/09/06 08:28:33;;;;;;;13.77;10.05;;;24.70;90.90;;;;;;5069532;28;20074;-51
2021/09/06 08:30:59;;;;;;;13.32;10.43;;;24.80;91.00;;;;;;5083820;28;20028;-50
2021/09/06 08:33:25;;;;;;;18.70;11.18;;;24.90;90.70;;;;;;5090970;28;20032;-50
2021/09/06 08:35:51;;;;;;;11.85;10.63;;;24.90;90.90;;;;;;5089986;28;20054;-51
2021/09/06 08:38:18;;;;;;;12.02;9.80;;;25.00;91.10;;;;;;5089265;28;20036;-50
2021/09/06 08:40:44;;;;;;;12.02;10.73;;;25.20;90.70;;;;;;5090261;28;20381;-51
2021/09/06 08:43:10;;;;;;;20.02;13.93;;;25.40;90.60;;;;;;5089584;28;20028;-50
2021/09/06 08:45:37;;;;;;;20.38;11.98;;;25.50;90.40;;;;;;5089079;28;20025;-50
2021/09/06 08:48:04;;;;;;;24.25;12.30;;;25.50;89.90;;;;;;5088689;28;20119;-55
2021/09/06 08:50:29;;;;;;;15.90;11.50;;;25.40;90.00;;;;;;5090174;28;20081;-51
2021/09/06 08:52:55;;;;;;;13.18;10.18;;;25.40;89.50;;;;;;5088278;28;20024;-51
2021/09/06 08:55:21;;;;;;;20.52;12.68;;;25.40;89.60;;;;;;5088992;28;20104;-51
2021/09/06 08:57:47;;;;;;;21.73;12.15;;;25.40;90.70;;;;;;5087847;28;20016;-51
2021/09/06 09:00:14;;;;;;;19.50;11.55;;;25.50;91.00;;;;;;5087268;28;20056;-51
2021/09/06 09:02:43;;;;;;;17.65;10.68;;;25.60;90.80;;;;;;5086830;28;20027;-51
2021/09/06 09:05:10;;;;;;;14.35;10.10;;;25.60;90.10;;;;;;5085851;28;20120;-59
2021/09/06 09:07:39;;;;;;;10.98;9.85;;;25.70;89.80;;;;;;5088410;28;20024;-53
2021/09/06 09:10:09;;;;;;;14.48;10.20;;;25.70;89.90;;;;;;5084847;28;20550;-74
2021/09/06 09:12:38;;;;;;;13.55;10.15;;;25.90;89.60;;;;;;5087833;28;20147;-69
2021/09/06 09:15:05;;;;;;;13.00;9.68;;;26.10;89.80;;;;;;5088160;28;20047;-69
2021/09/06 09:17:31;;;;;;;11.38;10.13;;;26.20;89.10;;;;;;5087941;28;20055;-69
2021/09/06 09:20:05;;;;;;;13.70;10.20;;;26.10;88.60;;;;;;5090015;28;20032;-69
2021/09/06 09:22:34;;;;;;;18.80;10.73;;;26.30;89.10;;;;;;5089946;28;20469;-69
2021/09/06 09:25:02;;;;;;;16.80;9.63;;;26.60;88.50;;;;;;5092545;28;20048;-70
2021/09/06 09:27:37;;;;;;;16.45;9.73;;;26.70;87.50;;;;;;5094252;28;20032;-70
2021/09/06 09:30:06;;;;;;;11.25;10.07;;;26.60;88.20;;;;;;5093166;28;20039;-69
2021/09/06 09:32:35;;;;;;;14.95;9.95;;;26.70;87.60;;;;;;5093896;28;20035;-70
2021/09/06 09:35:07;;;;;;;14.10;10.00;;;26.90;88.00;;;;;;5094261;28;20024;-69
2021/09/06 09:37:35;;;;;;;10.65;9.52;;;27.00;87.60;;;;;;5091802;28;20470;-70
2021/09/06 09:40:05;;;;;;;12.43;9.05;;;27.10;87.90;;;;;;5092642;28;20135;-68
2021/09/06 09:42:30;;;;;;;12.93;10.40;;;27.40;87.00;;;;;;5092946;28;20031;-70
2021/09/06 09:44:59;;;;;;;15.50;9.70;;;27.40;86.30;;;;;;5092433;28;20024;-69
2021/09/06 09:47:26;;;;;;;10.57;8.93;;;27.20;86.30;;;;;;5092116;28;20034;-69
2021/09/06 09:49:54;;;;;;;10.10;8.90;;;27.40;86.50;;;;;;5092912;28;20389;-69
2021/09/06 09:52:22;;;;;;;10.88;8.27;;;27.60;86.30;;;;;;5090942;28;20085;-69
2021/09/06 09:54:52;;;;;;;10.75;9.43;;;27.80;85.60;;;;;;5092146;28;20036;-70
2021/09/06 09:57:18;;;;;;;11.25;9.23;;;27.90;85.60;;;;;;5091307;28;20028;-69
2021/09/06 09:59:44;;;;;;;13.32;9.13;;;27.80;84.90;;;;;;5093777;28;20082;-69
2021/09/06 10:02:31;;;;;;;13.95;9.80;;;27.50;84.80;;;;;;5092469;28;20331;-69
2021/09/06 10:05:02;;;;;;;12.55;8.23;;;27.90;84.10;;;;;;5092093;28;20040;-70
2021/09/06 10:07:31;;;;;;;;;;;28.00;84.50;;;;;;5093711;28;20027;-70
2021/09/06 10:09:57;;;;;;;12.38;7.57;;;28.10;84.30;;;;;;5093369;28;19904;-70
2021/09/06 10:12:25;;;;;;;12.45;8.38;;;28.10;84.50;;;;;;5093163;28;20025;-69
2021/09/06 10:14:56;;;;;;;13.52;8.57;;;28.50;84.20;;;;;;5093757;28;20493;-69
2021/09/06 10:17:35;;;;;;;13.43;8.45;;;28.80;83.20;;;;;;5074681;28;20032;-71
2021/09/06 10:20:24;;;;;;;10.95;8.30;;;28.80;82.20;;;;;;5092252;28;20477;-70
2021/09/06 10:23:07;;;;;;;11.80;8.13;;;29.00;82.60;;;;;;5091487;28;20040;-70
2021/09/06 10:25:38;;;;;;;20.00;8.68;;;29.10;82.40;;;;;;5091036;28;20647;-69
2021/09/06 10:28:06;;;;;;;10.43;8.25;;;29.40;81.90;;;;;;5092333;28;20039;-69
2021/09/06 10:30:40;;;;;;;14.13;9.35;;;29.50;81.00;;;;;;5091347;28;20173;-70
2021/09/06 10:33:19;;;;;;;11.98;9.05;;;29.50;80.60;;;;;;5091320;28;20384;-70
2021/09/06 10:35:46;;;;;;;11.82;8.30;;;29.30;81.30;;;;;;5089924;28;20024;-70
2021/09/06 10:38:13;;;;;;;12.68;8.10;;;29.30;81.20;;;;;;5089757;28;20374;-71
2021/09/06 10:40:41;;;;;;;9.50;7.57;;;29.40;81.50;;;;;;5092437;28;20031;-71
2021/09/06 10:43:24;;;;;;;11.23;7.22;;;29.60;81.30;;;;;;5090317;28;20035;-69
2021/09/06 10:45:52;;;;;;;11.95;8.90;;;29.80;81.00;;;;;;5090814;28;20032;-71
2021/09/06 10:48:20;;;;;;;13.77;9.18;;;29.80;79.90;;;;;;5089768;28;20112;-71
2021/09/06 10:50:47;;;;;;;9.30;8.32;;;29.50;80.60;;;;;;5091902;28;20032;-71
2021/09/06 10:53:17;;;;;;;11.15;8.55;;;29.50;80.60;;;;;;5091431;28;20032;-71
2021/09/06 10:55:54;;;;;;;9.50;8.50;;;29.50;81.60;;;;;;5090414;28;20032;-71
2021/09/06 10:58:22;;;;;;;9.00;7.85;;;29.50;80.70;;;;;;5088797;28;20024;-51
2021/09/06 11:00:53;;;;;;;10.05;7.88;;;29.70;81.00;;;;;;5092435;28;20461;-50
2021/09/06 11:03:20;;;;;;;10.00;7.10;;;29.90;79.40;;;;;;5088686;28;20032;-51
2021/09/06 11:05:57;;;;;;;9.68;7.57;;;29.80;80.10;;;;;;5091108;28;20020;-51
2021/09/06 11:08:32;;;;;;;9.80;7.65;;;29.60;78.70;;;;;;5089792;28;20115;-50
2021/09/06 11:10:59;;;;;;;9.40;7.70;;;29.50;79.30;;;;;;5090262;28;20407;-49
2021/09/06 11:13:42;;;;;;;11.73;7.70;;;29.30;80.10;;;;;;5091161;28;20496;-51
2021/09/06 11:16:11;;;;;;;9.43;8.38;;;29.50;79.20;;;;;;5091901;28;20111;-50
2021/09/06 11:18:38;;;;;;;9.70;7.03;;;29.40;79.40;;;;;;5090753;28;20035;-51
2021/09/06 11:21:04;;;;;;;8.30;7.47;;;29.50;78.40;;;;;;5090262;28;20024;-50
2021/09/06 11:23:36;;;;;;;9.00;7.32;;;29.60;78.30;;;;;;5088751;28;20051;-50
2021/09/06 11:26:03;;;;;;;11.93;6.57;;;29.70;77.30;;;;;;5091400;28;20095;-50
2021/09/06 11:28:29;;;;;;;8.45;6.72;;;29.80;78.40;;;;;;5088394;28;20069;-51
2021/09/06 11:30:55;;;;;;;7.55;6.70;;;29.90;78.20;;;;;;5088711;28;20044;-51
2021/09/06 11:33:21;;;;;;;7.53;6.80;;;29.70;78.30;;;;;;5087960;28;20110;-51
2021/09/06 11:35:49;;;;;;;7.63;6.70;;;29.90;78.30;;;;;;5090340;28;20089;-50
2021/09/06 11:38:15;;;;;;;9.35;7.53;;;30.10;77.80;;;;;;5089049;28;20031;-60
2021/09/06 11:40:50;;;;;;;7.35;6.35;;;30.20;77.70;;;;;;5089728;28;20044;-49
2021/09/06 11:43:16;;;;;;;11.10;6.03;;;30.20;76.90;;;;;;5089399;28;20024;-58
2021/09/06 11:45:42;;;;;;;7.60;6.43;;;30.30;76.10;;;;;;5089252;28;20118;-49
2021/09/06 11:48:09;;;;;;;7.75;5.93;;;30.20;76.80;;;;;;5080643;28;20430;-50
2021/09/06 11:50:39;;;;;;;6.38;5.75;;;30.30;76.40;;;;;;5068847;28;20029;-49
2021/09/06 11:53:11;;;;;;;7.25;6.13;;;30.20;75.60;;;;;;5079667;28;20028;-49
2021/09/06 11:55:37;;;;;;;7.40;5.93;;;30.40;75.50;;;;;;5089930;28;20657;-52
2021/09/06 11:58:06;;;;;;;8.88;6.25;;;30.50;75.30;;;;;;5089205;28;20100;-50
2021/09/06 12:00:33;;;;;;;7.60;5.72;;;30.60;74.60;;;;;;5073119;28;20516;-51
2021/09/06 12:03:00;;;;;;;7.63;5.40;;;30.90;74.90;;;;;;5089226;28;20024;-50
2021/09/06 12:05:42;;;;;;;6.63;5.57;;;30.80;73.30;;;;;;5090342;28;20041;-51
2021/09/06 12:08:14;;;;;;;9.65;5.65;;;31.00;73.40;;;;;;5090921;28;20036;-51
2021/09/06 12:10:42;;;;;;;6.32;5.50;;;31.00;72.80;;;;;;5089207;28;20020;-50
2021/09/06 12:13:21;;;;;;;9.02;6.80;;;30.80;73.10;;;;;;5090554;28;20016;-51
2021/09/06 12:15:58;;;;;;;6.65;5.65;;;30.90;73.00;;;;;;5084695;28;20024;-50
2021/09/06 12:18:42;;;;;;;9.35;5.70;;;30.90;73.20;;;;;;5084567;28;20040;-51
2021/09/06 12:21:13;;;;;;;7.68;5.35;;;31.10;72.90;;;;;;5088745;28;20127;-50
2021/09/06 12:23:44;;;;;;;7.72;5.82;;;31.10;71.60;;;;;;5080594;28;20022;-50
2021/09/06 12:26:12;;;;;;;7.22;6.30;;;31.10;71.90;;;;;;5089839;28;20020;-50
2021/09/06 12:28:57;;;;;;;7.22;5.97;;;30.80;71.70;;;;;;5088835;28;20356;-51
2021/09/06 12:31:24;;;;;;;7.65;5.97;;;30.60;72.40;;;;;;5086390;28;20032;-51
2021/09/06 12:33:51;;;;;;;6.53;5.03;;;30.80;72.30;;;;;;5087327;28;20039;-50